Time;durP1;ratioP1;P1;durP2;ratioP2;P2;SDS_P1;SDS_P2;PMS_P1;PMS_P2;Temp;Humidity;BMP_temperature;BMP_pressure;BME280_temperature;BME280_humidity;BME280_pressure;Samples;Min_cycle;Max_cycle;Signal;HPM_P1;HPM_P2
2023/01/25 00:01:41;;;;;;;1.90;1.70;;;;;;;3.21;100.00;102181.09;5053756;28;20455;-53
2023/01/25 00:04:08;;;;;;;1.87;1.77;;;;;;;3.10;100.00;102172.88;5054428;28;20809;-53
2023/01/25 00:06:34;;;;;;;2.43;2.23;;;;;;;3.21;100.00;102168.84;5054264;28;20447;-52
2023/01/25 00:09:01;;;;;;;1.63;1.53;;;;;;;3.15;100.00;102167.75;5053887;28;20548;-53
2023/01/25 00:11:27;;;;;;;1.83;1.73;;;;;;;3.24;100.00;102168.94;5036352;28;20451;-53
2023/01/25 00:13:54;;;;;;;4.13;1.73;;;;;;;3.30;100.00;102157.75;5040576;28;20459;-53
2023/01/25 00:16:21;;;;;;;2.73;2.53;;;;;;;3.22;100.00;102161.88;5053764;28;20842;-52
2023/01/25 00:18:48;;;;;;;1.93;1.40;;;;;;;3.27;100.00;102166.41;5040497;28;20791;-53
2023/01/25 00:21:18;;;;;;;1.63;1.53;;;;;;;3.31;100.00;102159.53;5053781;28;20457;-52
2023/01/25 00:23:45;;;;;;;2.20;2.10;;;;;;;3.20;100.00;102151.31;5053845;28;20532;-53
2023/01/25 00:26:11;;;;;;;1.73;1.23;;;;;;;3.28;100.00;102157.69;5053643;28;21017;-53
2023/01/25 00:28:38;;;;;;;1.53;1.50;;;;;;;3.11;100.00;102155.38;5053545;28;20486;-52
2023/01/25 00:31:06;;;;;;;1.67;1.57;;;;;;;3.32;100.00;102153.44;5053316;28;20546;-53
2023/01/25 00:33:38;;;;;;;3.50;2.20;;;;;;;3.18;100.00;102152.13;5053687;28;20466;-52
2023/01/25 00:36:30;;;;;;;2.00;1.87;;;;;;;3.21;100.00;102153.09;5053592;28;20529;-52
2023/01/25 00:38:57;;;;;;;2.57;1.60;;;;;;;3.21;100.00;102146.94;5053534;28;20465;-53
2023/01/25 00:41:24;;;;;;;3.33;2.97;;;;;;;3.40;100.00;102149.28;5053235;28;20474;-53
2023/01/25 00:43:50;;;;;;;2.10;2.00;;;;;;;3.29;100.00;102140.22;5053199;28;20939;-52
2023/01/25 00:46:17;;;;;;;1.57;1.37;;;;;;;3.36;100.00;102134.28;5053346;28;20454;-53
2023/01/25 00:48:44;;;;;;;2.83;2.10;;;;;;;3.21;100.00;102136.44;5053155;28;21092;-53
2023/01/25 00:51:11;;;;;;;1.53;1.43;;;;;;;3.30;100.00;102131.47;5053137;28;20461;-52
2023/01/25 00:53:37;;;;;;;1.83;1.07;;;;;;;3.10;100.00;102130.84;5053040;28;20466;-53
2023/01/25 00:56:04;;;;;;;0.90;0.90;;;;;;;3.06;100.00;102135.97;5053024;28;20450;-52
2023/01/25 00:58:30;;;;;;;1.30;0.73;;;;;;;2.95;100.00;102135.63;5053024;28;20447;-54
2023/01/25 01:00:57;;;;;;;2.93;2.00;;;;;;;2.89;100.00;102130.19;5052923;28;20950;-52
2023/01/25 01:03:23;;;;;;;1.53;1.50;;;;;;;2.88;100.00;102133.66;5052803;28;21007;-52
2023/01/25 01:06:01;;;;;;;2.30;0.80;;;;;;;2.88;100.00;102131.91;5052802;28;21043;-53
2023/01/25 01:08:28;;;;;;;0.57;0.57;;;;;;;2.84;100.00;102126.50;5052578;28;20490;-53
2023/01/25 01:11:03;;;;;;;0.83;0.50;;;;;;;2.68;100.00;102128.63;5053044;28;20508;-52
2023/01/25 01:13:31;;;;;;;1.23;1.23;;;;;;;2.90;100.00;102124.97;5052282;28;20454;-53
2023/01/25 01:16:01;;;;;;;0.77;0.77;;;;;;;2.77;100.00;102128.03;5052780;28;20446;-53
2023/01/25 01:18:33;;;;;;;0.70;0.70;;;;;;;3.03;100.00;102128.88;5052654;28;20477;-53
2023/01/25 01:20:59;;;;;;;2.73;1.47;;;;;;;2.87;100.00;102129.22;5052539;28;20442;-52
2023/01/25 01:23:28;;;;;;;1.53;1.50;;;;;;;2.92;100.00;102125.91;5052681;28;20823;-52
2023/01/25 01:25:54;;;;;;;0.30;0.30;;;;;;;2.93;100.00;102124.16;5052737;28;20451;-52
2023/01/25 01:28:21;;;;;;;0.83;0.77;;;;;;;3.15;100.00;102123.09;5052323;28;21053;-52
2023/01/25 01:30:47;;;;;;;3.37;2.63;;;;;;;3.10;100.00;102122.97;5052497;28;20460;-51
2023/01/25 01:33:13;;;;;;;0.40;0.40;;;;;;;3.20;100.00;102127.66;5052298;28;20471;-52
2023/01/25 01:35:40;;;;;;;1.23;1.00;;;;;;;3.30;100.00;102122.72;5052304;28;20447;-52
2023/01/25 01:38:06;;;;;;;1.90;1.27;;;;;;;3.30;100.00;102125.34;5052530;28;20469;-51
2023/01/25 01:40:33;;;;;;;5.97;1.87;;;;;;;3.08;100.00;102119.41;5052474;28;20481;-51
2023/01/25 01:43:05;;;;;;;2.20;1.87;;;;;;;3.04;100.00;102119.25;5052260;28;20471;-51
2023/01/25 01:46:01;;;;;;;2.27;2.17;;;;;;;3.14;100.00;102113.44;5052298;28;20935;-52
2023/01/25 01:48:43;;;;;;;0.40;0.40;;;;;;;3.24;100.00;102120.75;5026841;28;20490;-51
2023/01/25 01:51:22;;;;;;;0.67;0.67;;;;;;;3.28;100.00;102125.25;5052149;28;21019;-52
2023/01/25 01:53:56;;;;;;;2.57;0.73;;;;;;;3.41;100.00;102113.38;5052160;28;20463;-51
2023/01/25 01:56:55;;;;;;;0.97;0.87;;;;;;;3.21;100.00;102112.78;5052094;28;21001;-51
2023/01/25 01:59:26;;;;;;;4.73;1.97;;;;;;;3.06;100.00;102104.44;5039199;28;20512;-51
2023/01/25 02:01:53;;;;;;;2.27;1.17;;;;;;;3.19;100.00;102106.59;5051881;28;20959;-51
2023/01/25 02:04:22;;;;;;;2.00;1.90;;;;;;;3.20;100.00;102111.00;5052035;28;20455;-51
2023/01/25 02:07:17;;;;;;;1.53;0.40;;;;;;;3.22;100.00;102101.44;5051839;28;20825;-52
2023/01/25 02:09:44;;;;;;;1.23;1.13;;;;;;;3.14;100.00;102103.81;5052152;28;20497;-52
2023/01/25 02:12:12;;;;;;;3.03;1.33;;;;;;;3.12;100.00;102096.72;5051987;28;20566;-51
2023/01/25 02:14:47;;;;;;;0.30;0.30;;;;;;;3.15;100.00;102096.81;5051986;28;20451;-51
2023/01/25 02:17:14;;;;;;;0.87;0.87;;;;;;;3.04;100.00;102091.25;5051894;28;20479;-51
2023/01/25 02:19:56;;;;;;;1.33;1.17;;;;;;;2.86;100.00;102095.91;5052043;28;20443;-51
2023/01/25 02:22:31;;;;;;;2.70;2.00;;;;;;;2.75;100.00;102092.06;5052011;28;20459;-51
2023/01/25 02:25:04;;;;;;;1.13;1.03;;;;;;;2.83;100.00;102101.06;5053560;28;20450;-51
2023/01/25 02:27:37;;;;;;;2.10;1.40;;;;;;;2.80;100.00;102088.75;5055661;28;20450;-52
2023/01/25 02:30:04;;;;;;;1.13;1.13;;;;;;;2.89;100.00;102089.03;5055714;28;20447;-51
2023/01/25 02:32:32;;;;;;;1.23;1.00;;;;;;;2.90;100.00;102097.81;5055810;28;20466;-51
2023/01/25 02:34:58;;;;;;;1.47;1.37;;;;;;;2.80;100.00;102090.47;5055852;28;20465;-51
2023/01/25 02:37:25;;;;;;;0.97;0.97;;;;;;;2.76;100.00;102091.22;5055705;28;20500;-52
2023/01/25 02:39:52;;;;;;;1.33;1.17;;;;;;;2.81;100.00;102084.38;5055593;28;20450;-51
2023/01/25 02:42:18;;;;;;;1.07;1.07;;;;;;;2.72;100.00;102090.22;5055435;28;20471;-51
2023/01/25 02:44:46;;;;;;;0.50;0.50;;;;;;;2.67;100.00;102091.81;5055693;28;20462;-51
2023/01/25 02:47:12;;;;;;;7.10;2.03;;;;;;;2.78;100.00;102087.81;5055435;28;21013;-55
2023/01/25 02:49:38;;;;;;;1.80;1.70;;;;;;;2.94;100.00;102086.56;5055372;28;21020;-51
2023/01/25 02:52:05;;;;;;;0.50;0.40;;;;;;;3.11;100.00;102087.97;5055386;28;20466;-54
2023/01/25 02:54:31;;;;;;;1.17;1.00;;;;;;;3.13;100.00;102078.38;5042025;28;20451;-51
2023/01/25 02:56:58;;;;;;;1.73;1.63;;;;;;;2.94;100.00;102078.69;5055641;28;20449;-51
2023/01/25 02:59:24;;;;;;;0.87;0.87;;;;;;;2.86;100.00;102090.66;5055404;28;20480;-52
2023/01/25 03:01:51;;;;;;;0.90;0.90;;;;;;;2.89;100.00;102080.28;5055297;28;20520;-51
2023/01/25 03:04:17;;;;;;;0.70;0.70;;;;;;;2.97;100.00;102084.03;5055065;28;20538;-51
2023/01/25 03:06:44;;;;;;;3.57;2.13;;;;;;;3.01;100.00;102085.00;5055138;28;20465;-51
2023/01/25 03:09:11;;;;;;;2.93;1.33;;;;;;;3.10;100.00;102090.53;5054882;28;20495;-52
2023/01/25 03:11:37;;;;;;;1.20;1.20;;;;;;;2.76;100.00;102086.88;5055363;28;20450;-51
2023/01/25 03:14:03;;;;;;;0.57;0.57;;;;;;;2.83;100.00;102086.22;5054853;28;20462;-51
2023/01/25 03:16:31;;;;;;;0.70;0.40;;;;;;;2.86;100.00;102091.56;5054987;28;20453;-52
2023/01/25 03:18:57;;;;;;;2.87;1.53;;;;;;;2.79;100.00;102078.19;5055059;28;20446;-51
2023/01/25 03:21:24;;;;;;;0.63;0.63;;;;;;;2.93;100.00;102088.28;5054797;28;20455;-51
2023/01/25 03:24:00;;;;;;;0.30;0.30;;;;;;;2.74;100.00;102080.69;5054650;28;20894;-51
2023/01/25 03:26:27;;;;;;;1.93;1.83;;;;;;;2.83;100.00;102082.69;5054967;28;20500;-51
2023/01/25 03:28:54;;;;;;;1.20;0.73;;;;;;;2.88;100.00;102081.13;5054802;28;20536;-52
2023/01/25 03:31:20;;;;;;;0.40;0.40;;;;;;;2.96;100.00;102075.25;5054576;28;20497;-51
2023/01/25 03:33:47;;;;;;;4.47;0.93;;;;;;;2.74;100.00;102071.88;5054626;28;20554;-51
2023/01/25 03:36:13;;;;;;;7.53;1.33;;;;;;;2.82;100.00;102071.31;5053862;28;20965;-51
2023/01/25 03:38:40;;;;;;;0.63;0.63;;;;;;;2.82;100.00;102060.78;5054749;28;20447;-51
2023/01/25 03:41:07;;;;;;;2.77;2.03;;;;;;;2.78;100.00;102058.03;5054669;28;20447;-51
2023/01/25 03:43:34;;;;;;;3.53;1.13;;;;;;;3.01;100.00;102062.25;5054562;28;20470;-51
2023/01/25 03:46:01;;;;;;;0.80;0.80;;;;;;;2.93;100.00;102061.13;5054463;28;20451;-51
2023/01/25 03:48:27;;;;;;;0.67;0.40;;;;;;;3.07;100.00;102059.81;5054426;28;20494;-51
2023/01/25 03:50:56;;;;;;;2.20;2.03;;;;;;;2.76;100.00;102064.97;5054155;28;20453;-51
2023/01/25 03:53:31;;;;;;;1.03;1.03;;;;;;;2.64;100.00;102062.84;5054165;28;20497;-52
2023/01/25 03:56:01;;;;;;;0.73;0.63;;;;;;;2.74;100.00;102067.56;5054381;28;20504;-51
2023/01/25 03:58:28;;;;;;;0.63;0.63;;;;;;;2.55;100.00;102073.03;5054287;28;20504;-52
2023/01/25 04:00:57;;;;;;;1.30;1.23;;;;;;;2.51;100.00;102069.44;5054061;28;20952;-51
2023/01/25 04:03:24;;;;;;;2.30;1.13;;;;;;;2.58;100.00;102063.53;5053714;28;20483;-51
2023/01/25 04:05:52;;;;;;;4.13;2.23;;;;;;;2.68;100.00;102065.59;5054138;28;20462;-53
2023/01/25 04:08:19;;;;;;;13.73;2.37;;;;;;;2.84;100.00;102059.09;5054055;28;20551;-51
2023/01/25 04:10:56;;;;;;;14.77;2.20;;;;;;;2.73;100.00;102056.97;5054095;28;20454;-52
2023/01/25 04:13:23;;;;;;;1.67;1.40;;;;;;;2.72;100.00;102049.94;5053864;28;20459;-50
2023/01/25 04:15:50;;;;;;;1.20;0.83;;;;;;;2.78;100.00;102043.19;5053768;28;20462;-52
2023/01/25 04:18:17;;;;;;;3.20;3.10;;;;;;;2.77;100.00;102051.91;5053793;28;20977;-51
2023/01/25 04:20:44;;;;;;;0.87;0.87;;;;;;;2.94;100.00;102045.44;5053747;28;20450;-51
2023/01/25 04:23:11;;;;;;;2.50;1.77;;;;;;;2.70;100.00;102047.28;5053678;28;20493;-51
2023/01/25 04:25:38;;;;;;;1.37;1.23;;;;;;;2.73;100.00;102046.47;5054193;28;20467;-51
2023/01/25 04:28:04;;;;;;;5.70;1.20;;;;;;;2.85;100.00;102049.50;5053567;28;20458;-51
2023/01/25 04:30:31;;;;;;;3.10;2.80;;;;;;;2.94;100.00;102044.53;5053505;28;20481;-51
2023/01/25 04:33:02;;;;;;;4.43;1.57;;;;;;;3.00;100.00;102046.44;5053303;28;20471;-53
2023/01/25 04:35:29;;;;;;;2.97;0.73;;;;;;;3.15;100.00;102049.53;5053740;28;20498;-52
2023/01/25 04:37:56;;;;;;;0.90;0.90;;;;;;;3.11;100.00;102043.31;5053561;28;20846;-51
2023/01/25 04:40:23;;;;;;;0.70;0.70;;;;;;;3.14;100.00;102039.88;5053437;28;20453;-52
2023/01/25 04:42:49;;;;;;;1.37;1.27;;;;;;;3.16;100.00;102038.22;5053067;28;20471;-52
2023/01/25 04:45:16;;;;;;;2.07;1.17;;;;;;;2.84;100.00;102032.84;5053570;28;20451;-51
2023/01/25 04:47:42;;;;;;;7.60;1.90;;;;;;;2.90;100.00;102040.03;5052450;28;20447;-53
2023/01/25 04:50:09;;;;;;;2.70;2.60;;;;;;;3.00;100.00;102035.94;5053167;28;21045;-51
2023/01/25 04:52:36;;;;;;;2.47;2.37;;;;;;;2.82;100.00;102036.28;5053129;28;20498;-51
2023/01/25 04:55:02;;;;;;;2.13;1.60;;;;;;;2.93;100.00;102040.13;5053090;28;20504;-52
2023/01/25 04:57:29;;;;;;;1.33;1.30;;;;;;;2.87;100.00;102032.94;5052938;28;20470;-51
2023/01/25 04:59:55;;;;;;;1.30;1.30;;;;;;;3.01;100.00;102028.09;5053334;28;20442;-51
2023/01/25 05:02:22;;;;;;;1.03;1.03;;;;;;;2.86;100.00;102025.00;5052878;28;20842;-51
2023/01/25 05:04:48;;;;;;;3.27;1.67;;;;;;;2.78;100.00;102019.53;5053067;28;20443;-50
2023/01/25 05:07:14;;;;;;;2.17;1.23;;;;;;;2.88;100.00;102020.72;5052747;28;20447;-51
2023/01/25 05:09:41;;;;;;;3.00;2.07;;;;;;;2.97;100.00;102027.13;5052781;28;20487;-53
2023/01/25 05:12:10;;;;;;;1.27;0.70;;;;;;;2.69;100.00;102019.25;5052647;28;20467;-51
2023/01/25 05:14:37;;;;;;;1.93;1.77;;;;;;;2.66;100.00;102019.16;5053015;28;20516;-51
2023/01/25 05:17:08;;;;;;;0.97;0.90;;;;;;;2.89;100.00;102017.25;5052545;28;20508;-52
2023/01/25 05:19:34;;;;;;;4.90;2.67;;;;;;;2.69;100.00;102011.38;5052774;28;20442;-52
2023/01/25 05:22:06;;;;;;;1.00;1.00;;;;;;;2.72;100.00;102007.94;5052501;28;20474;-51
2023/01/25 05:24:34;;;;;;;9.30;3.80;;;;;;;3.00;100.00;102002.69;5052486;28;20449;-52
2023/01/25 05:27:04;;;;;;;1.60;1.50;;;;;;;2.99;100.00;101998.28;5052751;28;20450;-51
2023/01/25 05:29:39;;;;;;;3.47;3.13;;;;;;;3.01;100.00;102006.19;5052346;28;20529;-52
2023/01/25 05:32:07;;;;;;;1.60;1.50;;;;;;;3.09;100.00;101992.47;5052681;28;20581;-52
2023/01/25 05:34:34;;;;;;;5.03;0.87;;;;;;;2.70;100.00;101993.88;5052391;28;20451;-52
2023/01/25 05:37:01;;;;;;;2.50;2.40;;;;;;;2.94;100.00;101997.25;5052382;28;20558;-52
2023/01/25 05:39:28;;;;;;;6.20;2.00;;;;;;;2.89;100.00;101991.88;5034928;28;20447;-53
2023/01/25 05:41:55;;;;;;;1.80;1.70;;;;;;;2.77;100.00;101988.00;5052407;28;20860;-52
2023/01/25 05:44:22;;;;;;;2.50;2.37;;;;;;;2.58;100.00;101987.41;5052312;28;20500;-52
2023/01/25 05:46:49;;;;;;;2.70;1.17;;;;;;;2.75;100.00;101987.94;5052281;28;20450;-51
2023/01/25 05:49:17;;;;;;;1.63;1.53;;;;;;;2.63;100.00;101984.94;5052260;28;20491;-52
2023/01/25 05:51:44;;;;;;;3.53;2.87;;;;;;;2.75;100.00;101984.44;5051874;28;20534;-52
2023/01/25 05:54:13;;;;;;;3.73;1.20;;;;;;;2.92;100.00;101991.97;5052247;28;20446;-53
2023/01/25 05:56:40;;;;;;;1.10;1.10;;;;;;;2.70;100.00;101980.75;5052120;28;20453;-52
2023/01/25 05:59:06;;;;;;;1.77;1.63;;;;;;;2.47;100.00;101987.91;5051793;28;20457;-52
2023/01/25 06:01:32;;;;;;;2.60;2.43;;;;;;;2.44;100.00;101985.19;5051894;28;20978;-52
2023/01/25 06:03:59;;;;;;;2.93;2.70;;;;;;;2.51;100.00;101972.31;5052276;28;20540;-56
2023/01/25 06:06:25;;;;;;;1.90;1.80;;;;;;;2.85;100.00;101986.47;5051785;28;20454;-56
2023/01/25 06:08:52;;;;;;;3.80;1.63;;;;;;;2.74;100.00;101975.66;5051818;28;20487;-56
2023/01/25 06:11:21;;;;;;;4.03;1.27;;;;;;;2.94;100.00;101979.78;5051910;28;20864;-56
2023/01/25 06:13:48;;;;;;;3.97;1.60;;;;;;;2.86;100.00;101975.13;5051873;28;20522;-56
2023/01/25 06:16:16;;;;;;;5.73;2.97;;;;;;;2.85;100.00;101971.59;5051776;28;20940;-56
2023/01/25 06:18:43;;;;;;;2.10;1.80;;;;;;;2.96;100.00;101977.19;5051783;28;20459;-55
2023/01/25 06:21:10;;;;;;;1.43;1.33;;;;;;;3.11;100.00;101977.63;5051730;28;20546;-56
2023/01/25 06:23:37;;;;;;;2.60;2.40;;;;;;;2.96;100.00;101974.56;5052012;28;20467;-56
2023/01/25 06:26:06;;;;;;;5.27;4.83;;;;;;;2.90;100.00;101971.75;5052005;28;20474;-56
2023/01/25 06:28:34;;;;;;;2.90;2.13;;;;;;;3.00;100.00;101972.91;5051830;28;20457;-56
2023/01/25 06:31:14;;;;;;;2.87;2.40;;;;;;;2.67;100.00;101974.56;5051849;28;20862;-55
2023/01/25 06:33:42;;;;;;;2.30;1.63;;;;;;;2.92;100.00;101976.22;5040684;28;20458;-56
2023/01/25 06:36:15;;;;;;;1.10;0.70;;;;;;;2.90;100.00;101979.66;5051686;28;20486;-56
2023/01/25 06:38:41;;;;;;;1.20;0.67;;;;;;;2.95;100.00;101983.28;5052054;28;20450;-56
2023/01/25 06:41:10;;;;;;;2.23;2.13;;;;;;;2.87;100.00;101984.78;5051639;28;20971;-56
2023/01/25 06:43:38;;;;;;;1.17;1.07;;;;;;;2.84;100.00;101982.97;5051636;28;20528;-56
2023/01/25 06:46:06;;;;;;;2.40;2.00;;;;;;;2.84;100.00;101982.06;5051561;28;20451;-56
2023/01/25 06:48:34;;;;;;;2.60;2.40;;;;;;;2.71;100.00;101967.69;5051853;28;20447;-56
2023/01/25 06:51:04;;;;;;;1.67;1.40;;;;;;;2.85;100.00;101975.97;5051655;28;20491;-56
2023/01/25 06:53:32;;;;;;;2.00;1.93;;;;;;;2.77;100.00;101969.63;5051918;28;20470;-56
2023/01/25 06:56:01;;;;;;;3.43;3.13;;;;;;;2.70;100.00;101965.91;5051488;28;20944;-55
2023/01/25 06:58:28;;;;;;;3.53;2.40;;;;;;;2.92;100.00;101968.34;5051487;28;20508;-56
2023/01/25 07:01:00;;;;;;;1.87;1.47;;;;;;;2.71;100.00;101969.41;5051366;28;20458;-55
2023/01/25 07:03:28;;;;;;;2.37;1.50;;;;;;;2.84;100.00;101982.06;5033421;28;21003;-56
2023/01/25 07:06:03;;;;;;;2.83;1.70;;;;;;;2.75;100.00;101972.19;5051361;28;20447;-56
2023/01/25 07:08:29;;;;;;;2.33;2.17;;;;;;;2.85;100.00;101976.84;5051295;28;20450;-55
2023/01/25 07:10:58;;;;;;;2.77;1.47;;;;;;;2.66;100.00;101975.41;5052672;28;20486;-56
2023/01/25 07:13:25;;;;;;;3.70;3.40;;;;;;;2.66;100.00;101983.28;5055083;28;20475;-56
2023/01/25 07:15:56;;;;;;;2.13;2.03;;;;;;;2.74;100.00;101983.53;5055085;28;20451;-56
2023/01/25 07:18:24;;;;;;;2.73;1.40;;;;;;;2.61;100.00;101976.13;5054932;28;20446;-55
2023/01/25 07:20:51;;;;;;;2.70;2.37;;;;;;;2.51;100.00;101971.44;5055017;28;20905;-55
2023/01/25 07:23:18;;;;;;;5.53;1.37;;;;;;;2.82;100.00;101978.50;5054718;28;20509;-55
2023/01/25 07:25:49;;;;;;;3.50;3.20;;;;;;;2.54;100.00;101972.41;5055119;28;20546;-56
2023/01/25 07:28:16;;;;;;;2.07;1.97;;;;;;;2.61;100.00;101974.41;5054918;28;20465;-56
2023/01/25 07:30:42;;;;;;;22.67;2.53;;;;;;;2.72;100.00;101974.69;5054827;28;20483;-56
2023/01/25 07:33:09;;;;;;;1.23;0.97;;;;;;;2.52;100.00;101981.09;5054605;28;20517;-55
2023/01/25 07:35:36;;;;;;;2.00;1.27;;;;;;;2.70;100.00;101979.03;5054631;28;20446;-55
2023/01/25 07:38:03;;;;;;;2.43;2.33;;;;;;;2.70;100.00;101971.16;5054445;28;20470;-55
2023/01/25 07:40:30;;;;;;;2.40;2.30;;;;;;;2.75;100.00;101969.56;5054759;28;20496;-56
2023/01/25 07:42:57;;;;;;;2.37;2.27;;;;;;;2.70;100.00;101970.25;5054343;28;21030;-55
2023/01/25 07:45:29;;;;;;;2.47;2.27;;;;;;;2.83;100.00;101980.28;5054526;28;20500;-55
2023/01/25 07:47:59;;;;;;;2.50;2.40;;;;;;;2.76;100.00;101975.72;5054637;28;20451;-55
2023/01/25 07:50:27;;;;;;;2.80;2.70;;;;;;;2.66;100.00;101977.16;5054304;28;20482;-56
2023/01/25 07:52:54;;;;;;;1.70;1.60;;;;;;;2.84;100.00;101976.81;5054583;28;20466;-56
2023/01/25 07:55:21;;;;;;;1.43;1.27;;;;;;;2.70;100.00;101971.16;5054497;28;20457;-55
2023/01/25 07:57:47;;;;;;;2.43;1.27;;;;;;;2.84;100.00;101976.81;5054536;28;20450;-56
2023/01/25 08:00:14;;;;;;;4.20;3.17;;;;;;;2.92;100.00;101977.94;5054197;28;20470;-55
2023/01/25 08:02:40;;;;;;;0.87;0.87;;;;;;;2.50;100.00;101978.41;5054007;28;21030;-55
2023/01/25 08:05:07;;;;;;;2.67;2.47;;;;;;;2.68;100.00;101970.22;5054066;28;20962;-55
2023/01/25 08:07:34;;;;;;;2.40;2.17;;;;;;;2.73;100.00;101976.47;5054396;28;20700;-56
2023/01/25 08:10:01;;;;;;;3.60;2.70;;;;;;;2.71;100.00;101972.03;5053942;28;20562;-56
2023/01/25 08:12:27;;;;;;;5.20;2.40;;;;;;;2.56;100.00;101975.09;5054172;28;20478;-56
2023/01/25 08:14:54;;;;;;;7.70;1.90;;;;;;;2.93;100.00;101977.09;5053850;28;20967;-55
2023/01/25 08:17:20;;;;;;;2.27;2.03;;;;;;;2.69;100.00;101972.00;5053929;28;20453;-55
2023/01/25 08:19:46;;;;;;;2.80;2.70;;;;;;;2.78;100.00;101972.28;5053706;28;20451;-55
2023/01/25 08:22:13;;;;;;;1.77;1.67;;;;;;;2.73;100.00;101975.59;5053793;28;20467;-55
2023/01/25 08:24:39;;;;;;;2.13;1.93;;;;;;;3.00;100.00;101971.16;5053886;28;20450;-55
2023/01/25 08:27:06;;;;;;;3.57;3.20;;;;;;;2.85;100.00;101970.72;5053664;28;20450;-55
2023/01/25 08:29:32;;;;;;;3.63;3.33;;;;;;;2.80;100.00;101965.34;5053520;28;20514;-56
2023/01/25 08:31:59;;;;;;;1.30;1.20;;;;;;;2.90;100.00;101961.25;5053506;28;20887;-55
2023/01/25 08:34:25;;;;;;;3.70;2.50;;;;;;;2.99;100.00;101969.38;5053483;28;20447;-56
2023/01/25 08:36:52;;;;;;;3.13;2.67;;;;;;;2.97;100.00;101965.81;5053748;28;20545;-56
2023/01/25 08:39:18;;;;;;;2.23;1.60;;;;;;;2.88;100.00;101968.22;5053664;28;20446;-54
2023/01/25 08:41:45;;;;;;;2.80;2.37;;;;;;;3.19;100.00;101965.63;5053456;28;20485;-54
2023/01/25 08:44:11;;;;;;;2.10;1.90;;;;;;;3.05;100.00;101956.44;5035499;28;21058;-56
2023/01/25 08:46:38;;;;;;;2.10;2.00;;;;;;;2.61;100.00;101966.53;5053376;28;20485;-56
2023/01/25 08:49:04;;;;;;;2.07;1.90;;;;;;;2.67;100.00;101963.19;5053237;28;20439;-56
2023/01/25 08:51:31;;;;;;;7.90;2.77;;;;;;;2.75;100.00;101964.31;5053436;28;20493;-55
2023/01/25 08:54:06;;;;;;;22.07;2.73;;;;;;;2.59;100.00;101951.53;5053250;28;20473;-56
2023/01/25 08:56:35;;;;;;;5.37;3.77;;;;;;;2.55;100.00;101953.19;5053168;28;20960;-56
2023/01/25 08:59:02;;;;;;;1.97;1.90;;;;;;;2.72;100.00;101953.69;5052997;28;20951;-56
2023/01/25 09:01:28;;;;;;;4.37;3.50;;;;;;;2.84;100.00;101950.56;5053010;28;20537;-56
2023/01/25 09:03:55;;;;;;;1.60;1.50;;;;;;;2.92;100.00;101951.69;5052667;28;20478;-56
2023/01/25 09:06:21;;;;;;;6.20;1.50;;;;;;;2.79;100.00;101954.78;5053089;28;20447;-56
2023/01/25 09:08:48;;;;;;;7.43;2.00;;;;;;;2.76;100.00;101941.59;5052980;28;20446;-56
2023/01/25 09:11:19;;;;;;;6.40;3.60;;;;;;;2.82;100.00;101949.63;5052885;28;20492;-56
2023/01/25 09:13:47;;;;;;;1.37;1.27;;;;;;;2.98;100.00;101941.34;5052576;28;20466;-56
2023/01/25 09:16:17;;;;;;;1.70;1.60;;;;;;;2.76;100.00;101946.84;5052821;28;20863;-56
2023/01/25 09:18:44;;;;;;;3.80;2.80;;;;;;;2.65;100.00;101950.03;5052693;28;20947;-56
2023/01/25 09:21:13;;;;;;;4.40;1.50;;;;;;;2.83;100.00;101946.16;5052836;28;20443;-55
2023/01/25 09:23:39;;;;;;;3.27;2.40;;;;;;;2.79;100.00;101945.19;5039578;28;20478;-56
2023/01/25 09:26:23;;;;;;;2.60;2.03;;;;;;;2.62;100.00;101949.94;5052535;28;20506;-55
2023/01/25 09:28:51;;;;;;;5.70;3.40;;;;;;;2.52;100.00;101939.09;5052834;28;20451;-56
2023/01/25 09:31:18;;;;;;;3.07;2.90;;;;;;;2.75;100.00;101943.31;5052561;28;20540;-56
2023/01/25 09:33:50;;;;;;;3.47;2.20;;;;;;;2.90;100.00;101940.25;5052184;28;20466;-56
2023/01/25 09:36:18;;;;;;;2.50;2.40;;;;;;;2.81;100.00;101932.97;5052539;28;20482;-56
2023/01/25 09:38:44;;;;;;;2.80;2.43;;;;;;;2.90;100.00;101935.00;5052405;28;21005;-56
2023/01/25 09:41:30;;;;;;;5.00;3.10;;;;;;;2.78;100.00;101929.38;5052579;28;20447;-56
2023/01/25 09:44:21;;;;;;;4.67;4.00;;;;;;;2.72;100.00;101935.31;5052247;28;20467;-56
2023/01/25 09:46:55;;;;;;;4.20;3.90;;;;;;;3.05;100.00;101931.91;5052513;28;20505;-56
2023/01/25 09:49:46;;;;;;;2.50;2.40;;;;;;;2.68;100.00;101933.47;5052290;28;20524;-56
2023/01/25 09:52:47;;;;;;;4.37;4.03;;;;;;;2.75;100.00;101929.31;5052372;28;20489;-55
2023/01/25 09:55:17;;;;;;;2.30;2.10;;;;;;;2.77;100.00;101927.59;5052440;28;20456;-56
2023/01/25 09:57:47;;;;;;;3.60;2.33;;;;;;;2.91;100.00;101923.66;5034463;28;20458;-56
2023/01/25 10:00:16;;;;;;;2.60;2.50;;;;;;;2.88;100.00;101926.19;5052363;28;20965;-56
2023/01/25 10:03:04;;;;;;;5.57;4.37;;;;;;;3.04;100.00;101920.53;5052121;28;20486;-56
2023/01/25 10:05:41;;;;;;;3.47;2.43;;;;;;;2.69;100.00;101927.38;5052088;28;20522;-56
2023/01/25 10:08:30;;;;;;;5.73;2.67;;;;;;;2.87;100.00;101921.75;5050138;28;20454;-56
2023/01/25 10:11:03;;;;;;;2.67;2.33;;;;;;;2.78;100.00;101921.50;5050111;28;20581;-56
2023/01/25 10:13:30;;;;;;;2.10;2.00;;;;;;;2.74;100.00;101923.16;5052155;28;20458;-56
2023/01/25 10:16:12;;;;;;;5.40;3.90;;;;;;;2.57;100.00;101922.63;5052227;28;20851;-56
2023/01/25 10:19:00;;;;;;;5.03;3.73;;;;;;;2.78;100.00;101922.41;5052343;28;20823;-56
2023/01/25 10:21:36;;;;;;;1.70;1.60;;;;;;;2.68;100.00;101918.59;5052117;28;20907;-56
2023/01/25 10:24:20;;;;;;;1.73;1.63;;;;;;;2.57;100.00;101914.75;5052389;28;20985;-56
2023/01/25 10:26:55;;;;;;;11.17;5.33;;;;;;;2.84;100.00;101914.69;5051847;28;20504;-56
2023/01/25 10:29:26;;;;;;;4.57;2.90;;;;;;;2.81;100.00;101906.72;5052530;28;20446;-56
2023/01/25 10:32:10;;;;;;;4.13;3.83;;;;;;;2.74;100.00;101896.91;5041216;28;20490;-56
2023/01/25 10:34:43;;;;;;;4.63;4.43;;;;;;;2.84;100.00;101898.94;5051954;28;20443;-56
2023/01/25 10:37:26;;;;;;;3.77;3.40;;;;;;;2.74;100.00;101899.53;5052037;28;20778;-56
2023/01/25 10:40:13;;;;;;;6.37;3.40;;;;;;;2.68;100.00;101897.59;5051943;28;20451;-56
2023/01/25 10:42:45;;;;;;;1.57;1.47;;;;;;;2.74;100.00;101888.09;5051844;28;20463;-56
2023/01/25 10:45:13;;;;;;;6.60;3.63;;;;;;;2.68;100.00;101888.84;5051993;28;20950;-56
2023/01/25 10:47:47;;;;;;;6.17;4.50;;;;;;;2.75;100.00;101872.44;5055364;28;20447;-56
2023/01/25 10:50:41;;;;;;;6.93;1.43;;;;;;;2.67;100.00;101877.44;5055753;28;20500;-56
2023/01/25 10:53:28;;;;;;;3.30;2.63;;;;;;;2.68;100.00;101866.09;5055537;28;20489;-56
2023/01/25 10:56:02;;;;;;;1.73;1.63;;;;;;;2.50;100.00;101862.94;5055213;28;20446;-56
2023/01/25 10:58:37;;;;;;;3.97;3.67;;;;;;;2.57;100.00;101864.91;5055636;28;20537;-56
2023/01/25 11:01:07;;;;;;;3.23;3.03;;;;;;;2.73;100.00;101853.09;5055456;28;20451;-56
2023/01/25 11:03:43;;;;;;;2.83;2.63;;;;;;;2.55;100.00;101847.31;5055200;28;20485;-56
2023/01/25 11:06:10;;;;;;;3.17;2.20;;;;;;;2.70;100.00;101844.25;5055296;28;20989;-56
2023/01/25 11:08:38;;;;;;;6.83;3.77;;;;;;;2.91;100.00;101837.88;5055414;28;20454;-56
2023/01/25 11:11:22;;;;;;;3.20;2.30;;;;;;;2.83;100.00;101836.75;5055442;28;20494;-56
2023/01/25 11:13:48;;;;;;;4.47;2.30;;;;;;;2.82;100.00;101826.22;5055195;28;20488;-56
2023/01/25 11:16:19;;;;;;;4.27;3.70;;;;;;;2.82;100.00;101826.22;5055225;28;20461;-56
2023/01/25 11:18:51;;;;;;;4.70;4.30;;;;;;;2.87;100.00;101821.97;5054815;28;20970;-56
2023/01/25 11:21:27;;;;;;;4.30;3.10;;;;;;;3.04;100.00;101818.09;5055111;28;20525;-56
2023/01/25 11:23:59;;;;;;;9.10;2.70;;;;;;;2.82;100.00;101813.09;5055079;28;20842;-56
2023/01/25 11:26:26;;;;;;;4.63;3.67;;;;;;;2.88;100.00;101810.66;5054943;28;20450;-56
2023/01/25 11:29:11;;;;;;;1.70;1.60;;;;;;;2.82;100.00;101816.59;5054885;28;20958;-56
2023/01/25 11:31:44;;;;;;;2.63;2.43;;;;;;;2.72;100.00;101800.56;5055019;28;20494;-56
2023/01/25 11:34:13;;;;;;;3.03;2.70;;;;;;;3.00;100.00;101805.69;5054796;28;20994;-56
2023/01/25 11:36:47;;;;;;;6.73;1.50;;;;;;;2.60;100.00;101801.09;5054864;28;20504;-56